createdAt,value
2023-07-18T00:01:49.066Z,13.82
2023-07-18T00:06:49.562Z,13.86
2023-07-18T00:11:50.171Z,13.82
2023-07-18T00:16:50.693Z,13.76
2023-07-18T00:21:51.158Z,13.71
2023-07-18T00:26:51.661Z,13.69
2023-07-18T00:31:52.226Z,13.69
2023-07-18T00:36:55.626Z,13.64
2023-07-18T00:41:56.142Z,13.64
2023-07-18T00:46:56.669Z,13.57
2023-07-18T00:51:57.133Z,13.52
2023-07-18T00:56:57.590Z,13.48
2023-07-18T01:01:58.104Z,13.44
2023-07-18T01:06:59.264Z,13.43
2023-07-18T01:11:59.758Z,13.39
2023-07-18T01:17:00.238Z,13.39
2023-07-18T01:22:00.744Z,13.38
2023-07-18T01:27:01.216Z,13.34
2023-07-18T01:32:01.779Z,13.31
2023-07-18T01:37:02.636Z,13.28
2023-07-18T01:42:03.122Z,13.24
2023-07-18T01:47:03.721Z,13.25
2023-07-18T01:52:05.481Z,13.24
2023-07-18T01:57:05.958Z,13.20
2023-07-18T02:02:06.834Z,13.18
2023-07-18T02:07:07.407Z,13.13
2023-07-18T02:12:10.341Z,13.12
2023-07-18T02:17:10.892Z,13.10
2023-07-18T02:22:11.415Z,13.08
2023-07-18T02:27:11.940Z,13.04
2023-07-18T02:32:12.429Z,13.02
2023-07-18T02:37:12.952Z,13.04
2023-07-18T02:42:13.465Z,13.02
2023-07-18T02:47:14.175Z,12.94
2023-07-18T02:52:14.690Z,12.88
2023-07-18T02:57:15.245Z,12.87
2023-07-18T03:02:16.144Z,12.86
2023-07-18T03:07:17.851Z,12.86
2023-07-18T03:12:18.317Z,12.84
2023-07-18T03:17:18.843Z,12.80
2023-07-18T03:22:19.675Z,12.75
2023-07-18T03:27:20.167Z,12.71
2023-07-18T03:32:20.879Z,12.72
2023-07-18T03:37:21.356Z,12.66
2023-07-18T03:42:21.845Z,12.62
2023-07-18T03:47:22.402Z,12.61
2023-07-18T03:52:22.962Z,12.59
2023-07-18T03:57:23.420Z,12.56
2023-07-18T04:02:23.939Z,12.56
2023-07-18T04:07:25.037Z,12.59
2023-07-18T04:12:25.628Z,12.63
2023-07-18T04:17:26.281Z,12.66
2023-07-18T04:22:26.846Z,12.68
2023-07-18T04:27:27.782Z,12.70
2023-07-18T04:32:28.381Z,12.75
2023-07-18T04:37:28.854Z,12.77
2023-07-18T04:42:29.313Z,12.81
2023-07-18T04:47:29.927Z,12.88
2023-07-18T04:52:30.638Z,12.96
2023-07-18T04:57:31.312Z,13.06
2023-07-18T05:02:31.832Z,13.17
2023-07-18T05:07:32.311Z,13.32
2023-07-18T05:12:32.857Z,13.47
2023-07-18T05:17:33.413Z,13.61
2023-07-18T05:22:34.628Z,13.74
2023-07-18T05:27:35.173Z,13.85
2023-07-18T05:32:35.693Z,13.97
2023-07-18T05:37:39.330Z,14.01
2023-07-18T05:42:39.814Z,14.11
2023-07-18T05:47:40.318Z,14.18
2023-07-18T05:52:41.314Z,14.26
2023-07-18T05:57:41.858Z,14.33
2023-07-18T06:02:42.383Z,14.42
2023-07-18T06:07:42.900Z,14.51
2023-07-18T06:12:43.371Z,14.64
2023-07-18T06:17:44.704Z,14.76
2023-07-18T06:22:47.387Z,14.86
2023-07-18T06:27:47.894Z,14.95
2023-07-18T06:32:48.408Z,15.07
2023-07-18T06:37:48.896Z,15.23
2023-07-18T06:42:49.426Z,15.38
2023-07-18T06:47:50.016Z,15.54
2023-07-18T06:52:51.612Z,15.73
2023-07-18T06:57:52.137Z,15.91
2023-07-18T07:02:52.724Z,16.08
2023-07-18T07:07:53.252Z,16.28
2023-07-18T07:12:56.058Z,16.43
2023-07-18T07:17:58.668Z,16.62
2023-07-18T07:22:59.227Z,16.81
2023-07-18T07:27:59.791Z,16.95
2023-07-18T07:33:00.318Z,17.07
2023-07-18T07:38:00.869Z,17.20
2023-07-18T07:43:01.365Z,17.42
2023-07-18T07:48:01.962Z,17.67
2023-07-18T07:53:02.594Z,17.92
2023-07-18T07:58:03.052Z,18.09
2023-07-18T08:03:03.593Z,18.31
2023-07-18T08:08:04.085Z,18.44
2023-07-18T08:13:04.645Z,18.98
2023-07-18T08:18:05.118Z,19.64
2023-07-18T08:23:06.068Z,20.07
2023-07-18T08:28:06.569Z,20.35
2023-07-18T08:33:07.407Z,20.58
2023-07-18T08:38:10.858Z,20.83
2023-07-18T08:43:15.145Z,20.96
2023-07-18T08:48:15.669Z,21.14
2023-07-18T08:53:16.182Z,20.86
2023-07-18T08:58:16.680Z,21.04
2023-07-18T09:03:17.859Z,21.54
2023-07-18T09:08:18.966Z,22.09
2023-07-18T09:13:19.429Z,22.75
2023-07-18T09:18:20.037Z,23.13
2023-07-18T09:23:20.542Z,23.29
2023-07-18T09:28:21.019Z,23.13
2023-07-18T09:33:21.499Z,23.35
2023-07-18T09:38:21.977Z,23.75
2023-07-18T09:43:22.678Z,23.90
2023-07-18T09:48:23.267Z,23.56
2023-07-18T09:53:23.989Z,23.34
2023-07-18T09:58:26.059Z,23.44
2023-07-18T10:03:26.862Z,23.57
2023-07-18T10:08:27.553Z,23.75
2023-07-18T10:13:28.041Z,23.76
2023-07-18T10:18:28.709Z,23.68
2023-07-18T10:23:29.290Z,23.28
2023-07-18T10:28:29.761Z,23.15
2023-07-18T10:33:30.239Z,23.16
2023-07-18T10:38:30.705Z,23.42
2023-07-18T10:43:31.173Z,23.95
2023-07-18T10:48:31.642Z,24.03
2023-07-18T10:53:32.612Z,24.26
2023-07-18T10:58:33.273Z,24.92
2023-07-18T11:03:36.450Z,25.63
2023-07-18T11:08:37.952Z,25.20
2023-07-18T11:13:38.561Z,25.77
2023-07-18T11:18:39.085Z,26.29
2023-07-18T11:23:39.593Z,26.82
2023-07-18T11:28:40.889Z,27.73
2023-07-18T11:33:41.947Z,27.89
2023-07-18T11:38:42.477Z,27.11
2023-07-18T11:43:43.017Z,27.46
2023-07-18T11:48:47.947Z,27.57
2023-07-18T11:53:48.507Z,27.01
2023-07-18T11:58:49.378Z,27.59
2023-07-18T12:03:49.916Z,27.83
2023-07-18T12:08:50.508Z,27.07
2023-07-18T12:13:51.032Z,26.04
2023-07-18T12:18:51.529Z,25.55
2023-07-18T12:23:52.029Z,24.74
2023-07-18T12:28:54.512Z,25.69
2023-07-18T12:33:54.991Z,26.24
2023-07-18T12:38:55.613Z,27.63
2023-07-18T12:43:56.139Z,27.86
2023-07-18T12:49:03.729Z,27.60
2023-07-18T12:54:04.659Z,28.12
2023-07-18T12:59:06.194Z,28.16
2023-07-18T13:04:06.740Z,28.27
2023-07-18T13:09:07.231Z,28.26
2023-07-18T13:14:07.731Z,28.07
2023-07-18T13:19:08.222Z,27.81
2023-07-18T13:24:08.739Z,27.16
2023-07-18T13:29:09.308Z,26.49
2023-07-18T13:34:11.196Z,26.35
2023-07-18T13:39:13.042Z,26.42
2023-07-18T13:44:13.686Z,26.25
2023-07-18T13:49:14.494Z,25.88
2023-07-18T13:54:14.961Z,26.97
2023-07-18T13:59:15.546Z,27.40
2023-07-18T14:04:16.232Z,27.19
2023-07-18T14:09:16.798Z,27.20
2023-07-18T14:14:17.705Z,26.65
2023-07-18T14:19:18.173Z,26.35
2023-07-18T14:24:18.697Z,26.45
2023-07-18T14:29:20.382Z,26.13
2023-07-18T14:34:20.868Z,26.72
2023-07-18T14:39:21.649Z,27.05
2023-07-18T14:44:22.176Z,27.08
2023-07-18T14:49:22.685Z,26.84
2023-07-18T14:54:23.195Z,27.23
2023-07-18T14:59:23.674Z,27.47
2023-07-18T15:04:24.192Z,27.59
2023-07-18T15:09:25.278Z,27.01
2023-07-18T15:14:25.769Z,26.64
2023-07-18T15:19:26.262Z,26.86
2023-07-18T15:24:26.807Z,27.09
2023-07-18T15:29:27.331Z,26.88
2023-07-18T15:34:27.912Z,27.18
2023-07-18T15:39:28.382Z,27.06
2023-07-18T15:44:28.881Z,26.76
2023-07-18T15:49:29.394Z,26.88
2023-07-18T15:54:29.877Z,26.91
2023-07-18T15:59:30.876Z,26.79
2023-07-18T16:04:31.412Z,26.67
2023-07-18T16:09:31.907Z,26.76
2023-07-18T16:14:34.217Z,26.66
2023-07-18T16:19:36.687Z,26.27
2023-07-18T16:24:37.240Z,26.36
2023-07-18T16:29:39.661Z,26.39
2023-07-18T16:34:40.247Z,26.08
2023-07-18T16:39:40.714Z,26.05
2023-07-18T16:44:41.231Z,25.95
2023-07-18T16:49:41.794Z,25.92
2023-07-18T16:54:42.284Z,25.88
2023-07-18T16:59:42.798Z,25.83
2023-07-18T17:04:43.376Z,25.84
2023-07-18T17:09:44.142Z,25.74
2023-07-18T17:14:44.637Z,25.72
2023-07-18T17:20:03.227Z,25.70
2023-07-18T17:25:05.990Z,25.48
2023-07-18T17:30:07.734Z,25.31
2023-07-18T17:35:08.227Z,25.08
2023-07-18T17:40:11.633Z,24.92
2023-07-18T17:45:12.177Z,24.87
2023-07-18T17:50:12.658Z,24.73
2023-07-18T17:55:13.218Z,24.72
2023-07-18T18:00:13.694Z,24.68
2023-07-18T18:05:14.194Z,24.65
2023-07-18T18:10:14.887Z,24.52
2023-07-18T18:15:15.402Z,24.32
2023-07-18T18:20:16.073Z,24.17
2023-07-18T18:25:16.615Z,24.19
2023-07-18T18:30:17.093Z,24.10
2023-07-18T18:35:17.722Z,23.88
2023-07-18T18:40:18.196Z,23.76
2023-07-18T18:45:19.098Z,23.62
2023-07-18T18:50:19.638Z,23.47
2023-07-18T18:55:21.019Z,23.29
2023-07-18T19:00:22.942Z,23.01
2023-07-18T19:05:23.416Z,22.79
2023-07-18T19:10:24.205Z,22.59
2023-07-18T19:15:25.144Z,22.41
2023-07-18T19:20:25.614Z,22.24
2023-07-18T19:25:26.154Z,22.08
2023-07-18T19:30:26.657Z,21.96
2023-07-18T19:35:27.266Z,21.82
2023-07-18T19:40:28.691Z,21.69
2023-07-18T19:45:29.185Z,21.57
2023-07-18T19:50:29.681Z,21.41
2023-07-18T19:55:30.142Z,21.28
2023-07-18T20:00:30.644Z,21.18
2023-07-18T20:05:32.648Z,21.05
2023-07-18T20:10:33.140Z,20.86
2023-07-18T20:15:33.656Z,20.73
2023-07-18T20:20:34.140Z,20.63
2023-07-18T20:25:34.607Z,20.48
2023-07-18T20:30:35.324Z,20.37
2023-07-18T20:35:35.804Z,20.10
2023-07-18T20:40:37.185Z,19.96
2023-07-18T20:45:37.768Z,19.90
2023-07-18T20:50:38.902Z,19.79
2023-07-18T20:55:39.379Z,19.58
2023-07-18T21:00:39.901Z,19.46
2023-07-18T21:05:40.379Z,19.39
2023-07-18T21:10:40.861Z,19.39
2023-07-18T21:15:41.637Z,19.53
2023-07-18T21:20:42.114Z,19.50
2023-07-18T21:25:43.067Z,19.51
2023-07-18T21:30:43.549Z,19.30
2023-07-18T21:35:44.113Z,19.16
2023-07-18T21:40:44.583Z,19.10
2023-07-18T21:45:45.125Z,19.04
2023-07-18T21:50:45.784Z,18.86
2023-07-18T21:55:46.298Z,18.75
2023-07-18T22:00:46.923Z,18.77
2023-07-18T22:05:47.492Z,18.81
2023-07-18T22:10:47.971Z,18.80
2023-07-18T22:15:48.637Z,18.67
2023-07-18T22:20:49.602Z,18.52
2023-07-18T22:26:03.982Z,18.43
2023-07-18T22:31:10.655Z,18.36
2023-07-18T22:36:11.180Z,18.25
2023-07-18T22:41:11.670Z,18.12
2023-07-18T22:46:12.146Z,18.02
2023-07-18T22:51:12.633Z,17.90
2023-07-18T22:56:14.583Z,17.77
2023-07-18T23:01:15.724Z,17.69
2023-07-18T23:06:16.206Z,17.67
2023-07-18T23:11:16.691Z,17.62
2023-07-18T23:16:17.210Z,17.58
2023-07-18T23:21:17.986Z,17.66
2023-07-18T23:26:18.915Z,17.64
2023-07-18T23:31:19.787Z,17.60
2023-07-18T23:36:20.516Z,17.69
2023-07-18T23:41:21.206Z,17.64
2023-07-18T23:46:21.806Z,17.61
2023-07-18T23:51:22.550Z,17.60
2023-07-18T23:56:23.303Z,17.54
